sensor_id;sensor_type;location;lat;lon;timestamp;pressure;altitude;pressure_sealevel;temperature;humidity
64521;BME280;50896;46.714;17.322;2023-06-14T00:01:55;100124.78;;;15.27;100.00
64521;BME280;50896;46.714;17.322;2023-06-14T00:04:22;100118.38;;;15.21;100.00
64521;BME280;50896;46.714;17.322;2023-06-14T00:06:52;100122.69;;;15.22;100.00
64521;BME280;50896;46.714;17.322;2023-06-14T00:09:19;100123.06;;;15.12;100.00
64521;BME280;50896;46.714;17.322;2023-06-14T00:11:45;100126.75;;;15.04;100.00
64521;BME280;50896;46.714;17.322;2023-06-14T00:14:12;100133.13;;;15.03;100.00
64521;BME280;50896;46.714;17.322;2023-06-14T00:16:40;100123.91;;;15.13;100.00
64521;BME280;50896;46.714;17.322;2023-06-14T00:19:09;100136.84;;;15.09;100.00
64521;BME280;50896;46.714;17.322;2023-06-14T00:21:37;100130.50;;;15.10;100.00
64521;BME280;50896;46.714;17.322;2023-06-14T00:24:05;100127.31;;;15.00;100.00
64521;BME280;50896;46.714;17.322;2023-06-14T00:26:32;100132.28;;;14.96;100.00
64521;BME280;50896;46.714;17.322;2023-06-14T00:28:59;100128.94;;;14.94;100.00
64521;BME280;50896;46.714;17.322;2023-06-14T00:31:26;100126.34;;;15.08;100.00
64521;BME280;50896;46.714;17.322;2023-06-14T00:33:53;100129.63;;;15.03;100.00
64521;BME280;50896;46.714;17.322;2023-06-14T00:36:20;100114.97;;;14.92;100.00
64521;BME280;50896;46.714;17.322;2023-06-14T00:38:47;100120.72;;;14.96;100.00
64521;BME280;50896;46.714;17.322;2023-06-14T00:41:14;100115.56;;;14.94;100.00
64521;BME280;50896;46.714;17.322;2023-06-14T00:43:41;100116.56;;;14.86;100.00
64521;BME280;50896;46.714;17.322;2023-06-14T00:46:08;100130.16;;;14.85;100.00
64521;BME280;50896;46.714;17.322;2023-06-14T00:48:37;100125.97;;;14.76;100.00
64521;BME280;50896;46.714;17.322;2023-06-14T00:51:05;100121.03;;;14.73;100.00
64521;BME280;50896;46.714;17.322;2023-06-14T00:53:33;100113.41;;;14.69;100.00
64521;BME280;50896;46.714;17.322;2023-06-14T00:56:02;100123.44;;;14.67;100.00
64521;BME280;50896;46.714;17.322;2023-06-14T00:58:30;100121.69;;;14.53;100.00
64521;BME280;50896;46.714;17.322;2023-06-14T01:00:58;100130.09;;;14.50;100.00
64521;BME280;50896;46.714;17.322;2023-06-14T01:03:25;100117.41;;;14.59;100.00
64521;BME280;50896;46.714;17.322;2023-06-14T01:06:23;100125.31;;;14.67;100.00
64521;BME280;50896;46.714;17.322;2023-06-14T01:12:07;100117.59;;;14.85;100.00
64521;BME280;50896;46.714;17.322;2023-06-14T01:14:39;100114.50;;;14.82;100.00
64521;BME280;50896;46.714;17.322;2023-06-14T01:17:07;100117.53;;;14.72;100.00
64521;BME280;50896;46.714;17.322;2023-06-14T01:19:42;100112.19;;;14.79;100.00
64521;BME280;50896;46.714;17.322;2023-06-14T01:22:13;100116.94;;;14.77;100.00
64521;BME280;50896;46.714;17.322;2023-06-14T01:24:40;100110.91;;;14.68;100.00
64521;BME280;50896;46.714;17.322;2023-06-14T01:27:12;100107.31;;;14.54;100.00
64521;BME280;50896;46.714;17.322;2023-06-14T01:29:40;100111.03;;;14.60;100.00
64521;BME280;50896;46.714;17.322;2023-06-14T01:32:14;100103.25;;;14.65;100.00
64521;BME280;50896;46.714;17.322;2023-06-14T01:34:41;100113.00;;;14.73;100.00
64521;BME280;50896;46.714;17.322;2023-06-14T01:37:09;100097.91;;;14.65;100.00
64521;BME280;50896;46.714;17.322;2023-06-14T01:39:37;100101.94;;;14.54;100.00
64521;BME280;50896;46.714;17.322;2023-06-14T01:42:05;100096.41;;;14.56;100.00
64521;BME280;50896;46.714;17.322;2023-06-14T01:44:33;100096.78;;;14.52;100.00
64521;BME280;50896;46.714;17.322;2023-06-14T01:47:00;100094.88;;;14.46;100.00
64521;BME280;50896;46.714;17.322;2023-06-14T01:49:27;100103.50;;;14.42;100.00
64521;BME280;50896;46.714;17.322;2023-06-14T01:51:54;100104.53;;;14.41;100.00
64521;BME280;50896;46.714;17.322;2023-06-14T01:54:21;100107.41;;;14.39;100.00
64521;BME280;50896;46.714;17.322;2023-06-14T01:56:49;100100.59;;;14.36;100.00
64521;BME280;50896;46.714;17.322;2023-06-14T01:59:16;100108.34;;;14.31;100.00
64521;BME280;50896;46.714;17.322;2023-06-14T02:01:42;100099.97;;;14.34;100.00
64521;BME280;50896;46.714;17.322;2023-06-14T02:04:09;100108.41;;;14.38;100.00
64521;BME280;50896;46.714;17.322;2023-06-14T02:06:37;100105.34;;;14.41;100.00
64521;BME280;50896;46.714;17.322;2023-06-14T02:09:04;100101.84;;;14.41;100.00
64521;BME280;50896;46.714;17.322;2023-06-14T02:11:31;100106.19;;;14.42;100.00
64521;BME280;50896;46.714;17.322;2023-06-14T02:13:58;100109.47;;;14.44;100.00
64521;BME280;50896;46.714;17.322;2023-06-14T02:16:26;100109.25;;;14.39;100.00
64521;BME280;50896;46.714;17.322;2023-06-14T02:18:55;100104.78;;;14.46;100.00
64521;BME280;50896;46.714;17.322;2023-06-14T02:21:22;100099.78;;;14.43;100.00
64521;BME280;50896;46.714;17.322;2023-06-14T02:23:50;100101.91;;;14.47;100.00
64521;BME280;50896;46.714;17.322;2023-06-14T02:26:17;100099.22;;;14.47;100.00
64521;BME280;50896;46.714;17.322;2023-06-14T02:28:43;100098.22;;;14.48;100.00
64521;BME280;50896;46.714;17.322;2023-06-14T02:31:10;100095.09;;;14.45;100.00
64521;BME280;50896;46.714;17.322;2023-06-14T02:33:37;100095.34;;;14.50;100.00
64521;BME280;50896;46.714;17.322;2023-06-14T02:36:05;100098.00;;;14.50;100.00
64521;BME280;50896;46.714;17.322;2023-06-14T02:38:34;100089.19;;;14.56;100.00
64521;BME280;50896;46.714;17.322;2023-06-14T02:41:00;100093.28;;;14.52;100.00
64521;BME280;50896;46.714;17.322;2023-06-14T02:43:29;100092.25;;;14.53;100.00
64521;BME280;50896;46.714;17.322;2023-06-14T02:45:57;100090.00;;;14.57;100.00
64521;BME280;50896;46.714;17.322;2023-06-14T02:48:24;100095.34;;;14.57;100.00
64521;BME280;50896;46.714;17.322;2023-06-14T02:50:51;100089.59;;;14.53;100.00
64521;BME280;50896;46.714;17.322;2023-06-14T02:53:18;100087.13;;;14.51;100.00
64521;BME280;50896;46.714;17.322;2023-06-14T02:55:44;100090.41;;;14.53;100.00
64521;BME280;50896;46.714;17.322;2023-06-14T02:58:14;100080.34;;;14.56;100.00
64521;BME280;50896;46.714;17.322;2023-06-14T03:00:42;100087.66;;;14.68;100.00
64521;BME280;50896;46.714;17.322;2023-06-14T03:03:09;100090.34;;;14.68;100.00
64521;BME280;50896;46.714;17.322;2023-06-14T03:05:45;100092.41;;;14.73;100.00
64521;BME280;50896;46.714;17.322;2023-06-14T03:08:16;100093.44;;;14.72;100.00
64521;BME280;50896;46.714;17.322;2023-06-14T03:10:49;100096.78;;;14.81;100.00
64521;BME280;50896;46.714;17.322;2023-06-14T03:13:17;100100.56;;;14.93;100.00
64521;BME280;50896;46.714;17.322;2023-06-14T03:15:49;100090.06;;;14.98;100.00
64521;BME280;50896;46.714;17.322;2023-06-14T03:18:20;100087.22;;;15.07;100.00
64521;BME280;50896;46.714;17.322;2023-06-14T03:20:54;100091.09;;;15.04;100.00
64521;BME280;50896;46.714;17.322;2023-06-14T03:23:25;100101.44;;;15.14;100.00
64521;BME280;50896;46.714;17.322;2023-06-14T03:25:52;100099.81;;;15.19;100.00
64521;BME280;50896;46.714;17.322;2023-06-14T03:28:18;100102.69;;;15.18;100.00
64521;BME280;50896;46.714;17.322;2023-06-14T03:30:45;100098.19;;;15.18;100.00
64521;BME280;50896;46.714;17.322;2023-06-14T03:33:13;100100.53;;;15.35;100.00
64521;BME280;50896;46.714;17.322;2023-06-14T03:35:40;100099.91;;;15.53;100.00
64521;BME280;50896;46.714;17.322;2023-06-14T03:38:08;100092.75;;;15.67;100.00
64521;BME280;50896;46.714;17.322;2023-06-14T03:40:35;100099.75;;;15.68;100.00
64521;BME280;50896;46.714;17.322;2023-06-14T03:43:05;100096.13;;;15.82;100.00
64521;BME280;50896;46.714;17.322;2023-06-14T03:45:32;100096.31;;;15.87;100.00
64521;BME280;50896;46.714;17.322;2023-06-14T03:47:59;100100.03;;;15.93;100.00
64521;BME280;50896;46.714;17.322;2023-06-14T03:50:29;100097.78;;;16.03;100.00
64521;BME280;50896;46.714;17.322;2023-06-14T03:52:56;100107.47;;;16.11;100.00
64521;BME280;50896;46.714;17.322;2023-06-14T03:55:23;100117.16;;;16.12;100.00
64521;BME280;50896;46.714;17.322;2023-06-14T03:57:54;100120.84;;;16.04;100.00
64521;BME280;50896;46.714;17.322;2023-06-14T04:00:21;100125.41;;;16.11;100.00
64521;BME280;50896;46.714;17.322;2023-06-14T04:02:49;100131.19;;;16.14;100.00
64521;BME280;50896;46.714;17.322;2023-06-14T04:05:17;100138.63;;;16.12;100.00
64521;BME280;50896;46.714;17.322;2023-06-14T04:07:48;100130.97;;;16.09;100.00
64521;BME280;50896;46.714;17.322;2023-06-14T04:10:17;100134.06;;;16.06;100.00
64521;BME280;50896;46.714;17.322;2023-06-14T04:12:44;100134.28;;;16.11;100.00
64521;BME280;50896;46.714;17.322;2023-06-14T04:15:11;100128.50;;;16.21;100.00
64521;BME280;50896;46.714;17.322;2023-06-14T04:17:47;100142.72;;;16.28;100.00
64521;BME280;50896;46.714;17.322;2023-06-14T04:20:15;100146.88;;;16.37;100.00
64521;BME280;50896;46.714;17.322;2023-06-14T04:22:43;100142.75;;;16.48;100.00
64521;BME280;50896;46.714;17.322;2023-06-14T04:25:11;100155.31;;;16.48;100.00
64521;BME280;50896;46.714;17.322;2023-06-14T04:27:40;100152.03;;;16.52;100.00
64521;BME280;50896;46.714;17.322;2023-06-14T04:30:09;100160.47;;;16.63;100.00
64521;BME280;50896;46.714;17.322;2023-06-14T04:32:42;100157.56;;;16.78;100.00
64521;BME280;50896;46.714;17.322;2023-06-14T04:35:11;100160.44;;;16.96;100.00
64521;BME280;50896;46.714;17.322;2023-06-14T04:37:42;100153.63;;;16.80;100.00
64521;BME280;50896;46.714;17.322;2023-06-14T04:40:10;100161.06;;;16.98;100.00
64521;BME280;50896;46.714;17.322;2023-06-14T04:42:39;100160.13;;;17.31;100.00
64521;BME280;50896;46.714;17.322;2023-06-14T04:45:09;100159.63;;;17.48;100.00
64521;BME280;50896;46.714;17.322;2023-06-14T04:47:38;100154.84;;;17.50;100.00
64521;BME280;50896;46.714;17.322;2023-06-14T04:50:06;100151.56;;;17.48;100.00
64521;BME280;50896;46.714;17.322;2023-06-14T04:52:33;100163.13;;;17.55;100.00
64521;BME280;50896;46.714;17.322;2023-06-14T04:55:03;100161.06;;;17.50;100.00
64521;BME280;50896;46.714;17.322;2023-06-14T04:57:31;100164.13;;;17.60;100.00
64521;BME280;50896;46.714;17.322;2023-06-14T04:59:59;100168.28;;;17.56;100.00
64521;BME280;50896;46.714;17.322;2023-06-14T05:02:28;100167.66;;;17.61;100.00
64521;BME280;50896;46.714;17.322;2023-06-14T05:04:58;100169.72;;;17.59;100.00
64521;BME280;50896;46.714;17.322;2023-06-14T05:07:25;100175.09;;;17.59;100.00
64521;BME280;50896;46.714;17.322;2023-06-14T05:09:53;100174.44;;;17.64;100.00
64521;BME280;50896;46.714;17.322;2023-06-14T05:12:20;100172.38;;;17.66;100.00
64521;BME280;50896;46.714;17.322;2023-06-14T05:14:48;100176.94;;;17.65;100.00
64521;BME280;50896;46.714;17.322;2023-06-14T05:17:17;100171.56;;;17.65;100.00
64521;BME280;50896;46.714;17.322;2023-06-14T05:19:44;100180.22;;;17.67;100.00
64521;BME280;50896;46.714;17.322;2023-06-14T05:22:11;100178.41;;;17.61;100.00
64521;BME280;50896;46.714;17.322;2023-06-14T05:24:38;100192.41;;;17.70;100.00
64521;BME280;50896;46.714;17.322;2023-06-14T05:27:05;100183.72;;;17.68;100.00
64521;BME280;50896;46.714;17.322;2023-06-14T05:29:32;100179.63;;;17.65;100.00
64521;BME280;50896;46.714;17.322;2023-06-14T05:31:59;100175.88;;;17.66;100.00
64521;BME280;50896;46.714;17.322;2023-06-14T05:34:26;100180.66;;;17.64;100.00
64521;BME280;50896;46.714;17.322;2023-06-14T05:36:53;100187.25;;;17.68;100.00
64521;BME280;50896;46.714;17.322;2023-06-14T05:39:20;100186.81;;;17.71;100.00
64521;BME280;50896;46.714;17.322;2023-06-14T05:41:46;100178.94;;;17.76;100.00
64521;BME280;50896;46.714;17.322;2023-06-14T05:44:16;100175.59;;;17.81;100.00
64521;BME280;50896;46.714;17.322;2023-06-14T05:46:43;100176.00;;;17.85;100.00
64521;BME280;50896;46.714;17.322;2023-06-14T05:49:10;100181.97;;;17.87;100.00
64521;BME280;50896;46.714;17.322;2023-06-14T05:51:38;100186.91;;;17.90;100.00
64521;BME280;50896;46.714;17.322;2023-06-14T05:54:05;100182.19;;;17.92;100.00
64521;BME280;50896;46.714;17.322;2023-06-14T05:56:32;100188.78;;;17.96;100.00
64521;BME280;50896;46.714;17.322;2023-06-14T05:58:58;100186.25;;;18.01;100.00
64521;BME280;50896;46.714;17.322;2023-06-14T06:01:25;100185.41;;;18.07;100.00
64521;BME280;50896;46.714;17.322;2023-06-14T06:03:53;100192.22;;;18.10;100.00
64521;BME280;50896;46.714;17.322;2023-06-14T06:06:20;100193.44;;;18.14;100.00
64521;BME280;50896;46.714;17.322;2023-06-14T06:08:47;100191.53;;;18.15;100.00
64521;BME280;50896;46.714;17.322;2023-06-14T06:11:13;100200.66;;;18.14;100.00
64521;BME280;50896;46.714;17.322;2023-06-14T06:13:40;100202.53;;;18.13;100.00
64521;BME280;50896;46.714;17.322;2023-06-14T06:16:07;100205.53;;;18.23;100.00
64521;BME280;50896;46.714;17.322;2023-06-14T06:18:34;100205.91;;;18.34;100.00
64521;BME280;50896;46.714;17.322;2023-06-14T06:21:04;100207.13;;;18.38;100.00
64521;BME280;50896;46.714;17.322;2023-06-14T06:23:31;100199.97;;;18.50;100.00
64521;BME280;50896;46.714;17.322;2023-06-14T06:25:57;100212.97;;;18.78;100.00
64521;BME280;50896;46.714;17.322;2023-06-14T06:28:24;100206.44;;;18.93;100.00
64521;BME280;50896;46.714;17.322;2023-06-14T06:30:51;100207.19;;;19.00;100.00
64521;BME280;50896;46.714;17.322;2023-06-14T06:33:18;100210.28;;;19.04;100.00
64521;BME280;50896;46.714;17.322;2023-06-14T06:35:45;100211.84;;;19.11;100.00
64521;BME280;50896;46.714;17.322;2023-06-14T06:38:12;100207.06;;;19.13;100.00
64521;BME280;50896;46.714;17.322;2023-06-14T06:40:38;100207.88;;;19.14;100.00
64521;BME280;50896;46.714;17.322;2023-06-14T06:43:05;100204.16;;;19.15;100.00
64521;BME280;50896;46.714;17.322;2023-06-14T06:45:40;100218.44;;;19.16;100.00
64521;BME280;50896;46.714;17.322;2023-06-14T06:48:07;100220.91;;;19.17;100.00
64521;BME280;50896;46.714;17.322;2023-06-14T06:50:36;100217.69;;;19.27;100.00
64521;BME280;50896;46.714;17.322;2023-06-14T06:53:03;100217.38;;;19.35;100.00
64521;BME280;50896;46.714;17.322;2023-06-14T06:55:30;100224.13;;;19.44;100.00
64521;BME280;50896;46.714;17.322;2023-06-14T06:57:57;100223.91;;;19.83;100.00
64521;BME280;50896;46.714;17.322;2023-06-14T07:00:23;100233.38;;;19.67;100.00
64521;BME280;50896;46.714;17.322;2023-06-14T07:02:54;100222.25;;;19.45;100.00
64521;BME280;50896;46.714;17.322;2023-06-14T07:05:21;100229.00;;;19.36;100.00
64521;BME280;50896;46.714;17.322;2023-06-14T07:07:48;100228.91;;;19.24;100.00
64521;BME280;50896;46.714;17.322;2023-06-14T07:10:15;100235.66;;;19.33;100.00
64521;BME280;50896;46.714;17.322;2023-06-14T07:12:42;100225.09;;;19.50;100.00
64521;BME280;50896;46.714;17.322;2023-06-14T07:15:09;100234.00;;;19.51;100.00
64521;BME280;50896;46.714;17.322;2023-06-14T07:17:36;100237.16;;;19.47;100.00
64521;BME280;50896;46.714;17.322;2023-06-14T07:20:04;100243.47;;;19.41;100.00
64521;BME280;50896;46.714;17.322;2023-06-14T07:22:35;100238.06;;;19.60;100.00
64521;BME280;50896;46.714;17.322;2023-06-14T07:25:02;100240.59;;;19.36;100.00
64521;BME280;50896;46.714;17.322;2023-06-14T07:27:29;100242.25;;;19.56;100.00
64521;BME280;50896;46.714;17.322;2023-06-14T07:29:56;100238.94;;;19.72;100.00
64521;BME280;50896;46.714;17.322;2023-06-14T07:32:23;100239.34;;;20.06;95.49
64521;BME280;50896;46.714;17.322;2023-06-14T07:34:50;100237.66;;;20.24;83.13
64521;BME280;50896;46.714;17.322;2023-06-14T07:37:17;100235.59;;;20.61;78.79
64521;BME280;50896;46.714;17.322;2023-06-14T07:39:44;100245.22;;;20.57;77.34
64521;BME280;50896;46.714;17.322;2023-06-14T07:42:11;100238.41;;;20.55;68.59
64521;BME280;50896;46.714;17.322;2023-06-14T07:44:38;100244.28;;;20.63;67.79
64521;BME280;50896;46.714;17.322;2023-06-14T07:47:05;100244.22;;;20.70;67.91
64521;BME280;50896;46.714;17.322;2023-06-14T07:49:32;100252.72;;;20.55;65.83
64521;BME280;50896;46.714;17.322;2023-06-14T07:51:59;100253.50;;;20.32;64.24
64521;BME280;50896;46.714;17.322;2023-06-14T07:54:25;100258.81;;;20.39;64.34
64521;BME280;50896;46.714;17.322;2023-06-14T07:56:53;100248.66;;;20.22;66.84
64521;BME280;50896;46.714;17.322;2023-06-14T07:59:20;100251.47;;;20.27;68.81
64521;BME280;50896;46.714;17.322;2023-06-14T08:01:47;100258.84;;;20.08;67.57
64521;BME280;50896;46.714;17.322;2023-06-14T08:04:14;100259.41;;;20.10;68.05
64521;BME280;50896;46.714;17.322;2023-06-14T08:06:42;100255.09;;;20.09;68.03
64521;BME280;50896;46.714;17.322;2023-06-14T08:09:12;100252.25;;;20.04;68.62
64521;BME280;50896;46.714;17.322;2023-06-14T08:11:39;100264.53;;;20.00;67.39
64521;BME280;50896;46.714;17.322;2023-06-14T08:14:06;100253.06;;;20.05;66.98
64521;BME280;50896;46.714;17.322;2023-06-14T08:16:36;100257.63;;;20.04;65.14
64521;BME280;50896;46.714;17.322;2023-06-14T08:19:03;100254.72;;;20.06;63.85
64521;BME280;50896;46.714;17.322;2023-06-14T08:21:30;100259.88;;;20.07;63.54
64521;BME280;50896;46.714;17.322;2023-06-14T08:24:00;100262.97;;;20.23;66.21
64521;BME280;50896;46.714;17.322;2023-06-14T08:26:27;100262.50;;;20.26;69.14
64521;BME280;50896;46.714;17.322;2023-06-14T08:28:56;100254.69;;;20.36;69.52
64521;BME280;50896;46.714;17.322;2023-06-14T08:31:23;100250.81;;;20.44;68.50
64521;BME280;50896;46.714;17.322;2023-06-14T08:33:52;100249.53;;;20.46;70.63
64521;BME280;50896;46.714;17.322;2023-06-14T08:36:19;100258.59;;;20.52;71.97
64521;BME280;50896;46.714;17.322;2023-06-14T08:38:46;100259.06;;;20.61;70.57
64521;BME280;50896;46.714;17.322;2023-06-14T08:41:20;100249.44;;;20.65;70.10
64521;BME280;50896;46.714;17.322;2023-06-14T08:43:47;100252.16;;;20.65;72.98
64521;BME280;50896;46.714;17.322;2023-06-14T08:46:17;100254.13;;;20.58;72.86
64521;BME280;50896;46.714;17.322;2023-06-14T08:48:48;100260.25;;;20.65;72.25
64521;BME280;50896;46.714;17.322;2023-06-14T08:51:19;100255.75;;;20.47;71.95
64521;BME280;50896;46.714;17.322;2023-06-14T08:53:53;100252.72;;;20.55;69.89
64521;BME280;50896;46.714;17.322;2023-06-14T08:56:28;100262.09;;;20.41;73.22
64521;BME280;50896;46.714;17.322;2023-06-14T08:58:57;100261.84;;;20.42;74.30
64521;BME280;50896;46.714;17.322;2023-06-14T09:01:24;100261.28;;;20.40;74.58
64521;BME280;50896;46.714;17.322;2023-06-14T09:03:51;100260.66;;;20.38;73.19
64521;BME280;50896;46.714;17.322;2023-06-14T09:06:18;100270.34;;;20.58;71.98
64521;BME280;50896;46.714;17.322;2023-06-14T09:08:46;100262.19;;;20.76;72.91
64521;BME280;50896;46.714;17.322;2023-06-14T09:11:18;100260.53;;;20.87;70.92
64521;BME280;50896;46.714;17.322;2023-06-14T09:13:49;100260.19;;;20.83;71.95
64521;BME280;50896;46.714;17.322;2023-06-14T09:16:16;100265.84;;;20.94;72.11
64521;BME280;50896;46.714;17.322;2023-06-14T09:18:45;100272.03;;;20.94;70.97
64521;BME280;50896;46.714;17.322;2023-06-14T09:21:16;100275.13;;;20.98;73.10
64521;BME280;50896;46.714;17.322;2023-06-14T09:23:47;100261.63;;;21.10;71.86
64521;BME280;50896;46.714;17.322;2023-06-14T09:26:17;100270.06;;;20.78;70.48
64521;BME280;50896;46.714;17.322;2023-06-14T09:28:48;100271.34;;;20.87;70.50
64521;BME280;50896;46.714;17.322;2023-06-14T09:31:20;100268.31;;;20.95;67.80
64521;BME280;50896;46.714;17.322;2023-06-14T09:33:49;100274.78;;;21.06;69.01
64521;BME280;50896;46.714;17.322;2023-06-14T09:36:23;100270.06;;;21.13;66.32
64521;BME280;50896;46.714;17.322;2023-06-14T09:38:52;100270.53;;;21.10;68.27
64521;BME280;50896;46.714;17.322;2023-06-14T09:41:19;100273.22;;;21.22;67.10
64521;BME280;50896;46.714;17.322;2023-06-14T09:43:47;100279.69;;;21.57;67.06
64521;BME280;50896;46.714;17.322;2023-06-14T09:46:14;100285.88;;;21.69;64.70
64521;BME280;50896;46.714;17.322;2023-06-14T09:48:41;100284.53;;;21.31;62.97
64521;BME280;50896;46.714;17.322;2023-06-14T09:51:10;100282.38;;;21.33;63.12
64521;BME280;50896;46.714;17.322;2023-06-14T09:53:40;100285.91;;;21.33;60.54
64521;BME280;50896;46.714;17.322;2023-06-14T09:56:08;100291.56;;;21.32;61.57
64521;BME280;50896;46.714;17.322;2023-06-14T09:58:39;100289.44;;;21.58;61.36
64521;BME280;50896;46.714;17.322;2023-06-14T10:01:08;100283.19;;;21.57;60.32
64521;BME280;50896;46.714;17.322;2023-06-14T10:03:37;100278.28;;;21.42;61.28
64521;BME280;50896;46.714;17.322;2023-06-14T10:06:26;100280.16;;;21.30;61.15
64521;BME280;50896;46.714;17.322;2023-06-14T10:08:56;100277.59;;;21.11;62.05
64521;BME280;50896;46.714;17.322;2023-06-14T10:11:25;100277.31;;;21.48;61.13
64521;BME280;50896;46.714;17.322;2023-06-14T10:13:53;100284.38;;;21.49;62.88
64521;BME280;50896;46.714;17.322;2023-06-14T10:16:31;100280.59;;;21.74;61.35
64521;BME280;50896;46.714;17.322;2023-06-14T10:19:19;100290.00;;;22.00;58.44
64521;BME280;50896;46.714;17.322;2023-06-14T10:22:21;100284.09;;;21.87;59.09
64521;BME280;50896;46.714;17.322;2023-06-14T10:24:51;100280.41;;;21.93;57.54
64521;BME280;50896;46.714;17.322;2023-06-14T10:27:18;100286.13;;;21.56;58.37
64521;BME280;50896;46.714;17.322;2023-06-14T10:32:23;100285.22;;;21.91;58.61
64521;BME280;50896;46.714;17.322;2023-06-14T10:34:58;100285.22;;;21.91;57.75
64521;BME280;50896;46.714;17.322;2023-06-14T10:37:26;100273.16;;;21.81;58.55
64521;BME280;50896;46.714;17.322;2023-06-14T10:39:53;100285.78;;;21.64;59.20
64521;BME280;50896;46.714;17.322;2023-06-14T10:42:20;100281.84;;;21.83;58.16
64521;BME280;50896;46.714;17.322;2023-06-14T10:44:56;100280.28;;;21.88;55.89
64521;BME280;50896;46.714;17.322;2023-06-14T10:47:33;100286.56;;;21.76;58.66
64521;BME280;50896;46.714;17.322;2023-06-14T10:50:03;100279.44;;;21.99;57.79
64521;BME280;50896;46.714;17.322;2023-06-14T10:52:34;100275.66;;;22.00;56.10
64521;BME280;50896;46.714;17.322;2023-06-14T10:57:48;100272.38;;;21.98;56.66
64521;BME280;50896;46.714;17.322;2023-06-14T11:00:20;100273.59;;;21.90;56.18
64521;BME280;50896;46.714;17.322;2023-06-14T11:11:05;100274.75;;;21.94;54.61
64521;BME280;50896;46.714;17.322;2023-06-14T11:13:32;100273.16;;;21.81;53.20
64521;BME280;50896;46.714;17.322;2023-06-14T11:15:59;100270.63;;;21.92;53.42
64521;BME280;50896;46.714;17.322;2023-06-14T11:18:28;100277.09;;;21.91;50.44
64521;BME280;50896;46.714;17.322;2023-06-14T11:20:55;100277.16;;;21.67;53.53
64521;BME280;50896;46.714;17.322;2023-06-14T11:23:22;100259.81;;;21.92;54.64
64521;BME280;50896;46.714;17.322;2023-06-14T11:25:51;100270.25;;;22.00;54.90
64521;BME280;50896;46.714;17.322;2023-06-14T11:28:18;100269.81;;;21.91;52.19
64521;BME280;50896;46.714;17.322;2023-06-14T11:30:46;100268.44;;;21.77;50.51
64521;BME280;50896;46.714;17.322;2023-06-14T11:33:22;100273.53;;;21.73;54.06
64521;BME280;50896;46.714;17.322;2023-06-14T11:35:49;100268.00;;;21.68;54.81
64521;BME280;50896;46.714;17.322;2023-06-14T11:38:16;100263.03;;;21.77;56.45
64521;BME280;50896;46.714;17.322;2023-06-14T11:40:42;100259.19;;;21.73;55.66
64521;BME280;50896;46.714;17.322;2023-06-14T11:43:09;100265.06;;;21.70;53.81
64521;BME280;50896;46.714;17.322;2023-06-14T11:45:36;100268.50;;;21.65;56.25
64521;BME280;50896;46.714;17.322;2023-06-14T11:48:06;100267.13;;;21.79;53.31
64521;BME280;50896;46.714;17.322;2023-06-14T11:50:37;100269.28;;;21.77;54.26
64521;BME280;50896;46.714;17.322;2023-06-14T11:53:05;100263.94;;;21.54;57.88
64521;BME280;50896;46.714;17.322;2023-06-14T11:55:37;100264.25;;;21.45;56.24
64521;BME280;50896;46.714;17.322;2023-06-14T11:58:06;100255.09;;;21.58;57.67
64521;BME280;50896;46.714;17.322;2023-06-14T12:00:35;100264.19;;;21.52;65.29
64521;BME280;50896;46.714;17.322;2023-06-14T12:03:02;100265.69;;;21.48;67.92
64521;BME280;50896;46.714;17.322;2023-06-14T12:05:29;100269.06;;;21.43;69.10
64521;BME280;50896;46.714;17.322;2023-06-14T12:08:03;100265.31;;;21.44;70.76
64521;BME280;50896;46.714;17.322;2023-06-14T12:10:40;100266.28;;;21.26;74.73
64521;BME280;50896;46.714;17.322;2023-06-14T12:13:10;100256.56;;;21.02;73.51
64521;BME280;50896;46.714;17.322;2023-06-14T12:15:38;100256.69;;;20.95;76.86
64521;BME280;50896;46.714;17.322;2023-06-14T12:18:07;100262.31;;;21.05;73.62
64521;BME280;50896;46.714;17.322;2023-06-14T12:20:38;100264.09;;;20.88;73.79
64521;BME280;50896;46.714;17.322;2023-06-14T12:23:06;100269.38;;;21.06;75.28
64521;BME280;50896;46.714;17.322;2023-06-14T12:25:36;100267.50;;;20.95;74.54
64521;BME280;50896;46.714;17.322;2023-06-14T12:28:09;100258.78;;;20.93;72.35
64521;BME280;50896;46.714;17.322;2023-06-14T12:30:37;100264.88;;;21.00;73.41
64521;BME280;50896;46.714;17.322;2023-06-14T12:33:04;100251.28;;;20.95;72.11
64521;BME280;50896;46.714;17.322;2023-06-14T12:35:32;100258.34;;;20.96;70.98
64521;BME280;50896;46.714;17.322;2023-06-14T12:37:59;100257.00;;;20.98;71.32
64521;BME280;50896;46.714;17.322;2023-06-14T12:40:26;100257.50;;;20.83;71.40
64521;BME280;50896;46.714;17.322;2023-06-14T12:42:53;100257.16;;;20.92;73.75
64521;BME280;50896;46.714;17.322;2023-06-14T12:45:20;100253.25;;;20.76;74.93
64521;BME280;50896;46.714;17.322;2023-06-14T12:47:47;100253.50;;;20.74;74.56
64521;BME280;50896;46.714;17.322;2023-06-14T12:50:14;100258.13;;;20.55;74.25
64521;BME280;50896;46.714;17.322;2023-06-14T12:52:41;100241.34;;;20.65;73.02
64521;BME280;50896;46.714;17.322;2023-06-14T12:55:08;100251.16;;;20.90;72.42
64521;BME280;50896;46.714;17.322;2023-06-14T12:57:35;100247.09;;;21.63;69.18